Time;durP1;ratioP1;P1;durP2;ratioP2;P2;SDS_P1;SDS_P2;PMS_P1;PMS_P2;Temp;Humidity;BMP_temperature;BMP_pressure;BME280_temperature;BME280_humidity;BME280_pressure;Samples;Min_cycle;Max_cycle;Signal;HPM_P1;HPM_P2
2021/08/31 00:00:14;;;;;;;10.93;6.40;;;15.20;99.90;;;;;;5049609;28;20213;-88
2021/08/31 00:02:41;;;;;;;9.07;6.07;;;15.20;99.90;;;;;;5034992;28;20207;-88
2021/08/31 00:05:09;;;;;;;12.13;7.27;;;15.20;99.90;;;;;;5030241;28;20233;-87
2021/08/31 00:07:38;;;;;;;9.53;6.53;;;15.20;99.90;;;;;;5031194;28;20226;-88
2021/08/31 00:10:05;;;;;;;9.07;6.77;;;15.10;99.90;;;;;;5050461;28;20546;-88
2021/08/31 00:12:32;;;;;;;13.17;7.13;;;15.10;99.90;;;;;;5049729;28;20232;-88
2021/08/31 00:14:59;;;;;;;10.00;6.30;;;15.10;99.90;;;;;;5048796;28;20305;-86
2021/08/31 00:17:26;;;;;;;13.30;6.70;;;15.10;99.90;;;;;;5050080;28;20206;-88
2021/08/31 00:19:52;;;;;;;8.53;6.13;;;15.10;99.90;;;;;;5049518;28;20205;-88
2021/08/31 00:22:19;;;;;;;10.67;6.00;;;15.10;99.90;;;;;;5049261;28;20228;-87
2021/08/31 00:24:47;;;;;;;8.40;6.35;;;15.00;99.90;;;;;;5049037;28;20216;-86
2021/08/31 00:27:15;;;;;;;10.73;6.90;;;15.00;99.90;;;;;;5048222;28;20661;-87
2021/08/31 00:29:42;;;;;;;10.60;7.23;;;15.00;99.90;;;;;;5034692;28;20236;-88
2021/08/31 00:32:09;;;;;;;9.93;6.80;;;15.00;99.90;;;;;;5029128;28;20202;-86
2021/08/31 00:34:36;;;;;;;12.83;8.37;;;15.00;99.90;;;;;;5028600;28;20203;-88
2021/08/31 00:37:03;;;;;;;11.32;7.13;;;15.00;99.90;;;;;;5029116;28;20221;-87
2021/08/31 00:39:31;;;;;;;18.93;8.80;;;15.00;99.90;;;;;;5047987;28;20206;-87
2021/08/31 00:42:00;;;;;;;13.57;7.70;;;15.00;99.90;;;;;;5048768;28;20293;-85
2021/08/31 00:44:29;;;;;;;17.43;7.47;;;15.00;99.90;;;;;;5051743;28;20602;-87
2021/08/31 00:46:57;;;;;;;13.03;6.57;;;15.00;99.90;;;;;;5051530;28;20216;-86
2021/08/31 00:49:24;;;;;;;13.90;7.80;;;15.00;99.90;;;;;;5050321;28;20230;-87
2021/08/31 00:51:51;;;;;;;14.97;7.97;;;15.00;99.90;;;;;;5051144;28;20242;-87
2021/08/31 00:54:20;;;;;;;16.60;7.57;;;15.00;99.90;;;;;;5051494;28;20578;-86
2021/08/31 00:56:47;;;;;;;14.33;7.07;;;15.10;99.90;;;;;;5050987;28;20206;-87
2021/08/31 00:59:18;;;;;;;15.77;7.93;;;15.00;99.90;;;;;;5050494;28;20922;-87
2021/08/31 01:01:45;;;;;;;11.77;7.20;;;15.00;99.90;;;;;;5050693;28;20213;-86
2021/08/31 01:04:12;;;;;;;12.47;6.60;;;15.00;99.90;;;;;;5051107;28;20202;-88
2021/08/31 01:06:39;;;;;;;11.93;7.07;;;15.00;99.90;;;;;;5050113;28;20198;-86
2021/08/31 01:09:07;;;;;;;10.67;6.83;;;15.00;99.90;;;;;;5050337;28;20229;-88
2021/08/31 01:11:35;;;;;;;13.63;7.53;;;15.00;99.90;;;;;;5050377;28;20198;-87
2021/08/31 01:14:01;;;;;;;11.83;7.83;;;15.00;99.90;;;;;;5051292;28;20248;-86
2021/08/31 01:16:30;;;;;;;14.47;7.33;;;15.00;99.90;;;;;;5049628;28;20204;-88
2021/08/31 01:18:57;;;;;;;18.20;8.27;;;15.00;99.90;;;;;;5048172;28;20198;-89
2021/08/31 01:21:24;;;;;;;14.40;7.20;;;15.00;99.90;;;;;;5049132;28;20856;-88
2021/08/31 01:23:51;;;;;;;13.77;6.93;;;14.90;99.90;;;;;;5050220;28;20657;-88
2021/08/31 01:26:20;;;;;;;9.87;6.13;;;14.90;99.90;;;;;;5052524;28;20305;-86
2021/08/31 01:28:46;;;;;;;14.20;7.70;;;14.90;99.90;;;;;;5052783;28;20229;-88
2021/08/31 01:31:13;;;;;;;12.07;7.87;;;14.80;99.90;;;;;;5053202;28;20205;-88
2021/08/31 01:33:40;;;;;;;11.80;6.97;;;14.80;99.90;;;;;;5050888;28;20598;-87
2021/08/31 01:36:20;;;;;;;9.50;6.70;;;14.80;99.90;;;;;;5048777;28;20202;-87
2021/08/31 01:38:47;;;;;;;14.10;7.23;;;14.80;99.90;;;;;;5052593;28;20198;-85
2021/08/31 01:41:14;;;;;;;9.17;6.83;;;14.80;99.90;;;;;;5053479;28;20213;-88
2021/08/31 01:43:42;;;;;;;12.53;6.97;;;14.80;99.90;;;;;;5052538;28;20206;-87
2021/08/31 01:46:10;;;;;;;12.90;7.77;;;14.70;99.90;;;;;;5036442;28;20229;-87
2021/08/31 01:48:37;;;;;;;11.40;7.00;;;14.70;99.90;;;;;;5033605;28;20230;-87
2021/08/31 01:51:05;;;;;;;16.20;7.90;;;14.70;99.90;;;;;;5052357;28;20233;-85
2021/08/31 01:53:32;;;;;;;10.63;6.97;;;14.70;99.90;;;;;;5053273;28;20198;-86
2021/08/31 01:55:59;;;;;;;9.90;6.27;;;14.70;99.90;;;;;;5053029;28;20205;-88
2021/08/31 01:58:26;;;;;;;7.43;5.50;;;14.70;99.90;;;;;;5061375;28;20202;-88
2021/08/31 02:00:54;;;;;;;8.57;5.97;;;14.60;99.90;;;;;;5050166;28;20276;-87
2021/08/31 02:03:21;;;;;;;11.57;6.50;;;14.60;99.90;;;;;;5055590;28;20197;-88
2021/08/31 02:05:48;;;;;;;9.43;5.80;;;14.60;99.90;;;;;;5062935;28;20209;-88
2021/08/31 02:08:15;;;;;;;9.50;5.90;;;14.60;99.90;;;;;;5058163;28;20226;-88
2021/08/31 02:10:42;;;;;;;10.30;5.77;;;14.60;99.90;;;;;;5055571;28;20213;-87
2021/08/31 02:13:09;;;;;;;11.30;6.40;;;14.50;99.90;;;;;;5052411;28;20845;-86
2021/08/31 02:15:36;;;;;;;8.73;5.60;;;14.50;99.90;;;;;;5051410;28;20200;-88
2021/08/31 02:18:05;;;;;;;10.00;5.23;;;14.50;99.90;;;;;;5051391;28;20209;-88
2021/08/31 02:20:32;;;;;;;10.30;6.20;;;14.50;99.90;;;;;;5050719;28;20967;-88
2021/08/31 02:22:59;;;;;;;9.47;5.50;;;14.40;99.90;;;;;;5051534;28;20204;-88
2021/08/31 02:25:26;;;;;;;10.83;6.13;;;14.40;99.90;;;;;;5051621;28;20708;-89
2021/08/31 02:27:52;;;;;;;11.30;6.37;;;14.40;99.90;;;;;;5050219;28;20248;-88
2021/08/31 02:30:19;;;;;;;9.77;5.70;;;14.40;99.90;;;;;;5050997;28;20208;-88
2021/08/31 02:32:47;;;;;;;9.70;5.80;;;14.40;99.90;;;;;;5050130;28;20212;-88
2021/08/31 02:35:16;;;;;;;9.30;6.00;;;14.40;99.90;;;;;;5051016;28;20217;-88
2021/08/31 02:37:43;;;;;;;10.83;6.60;;;14.40;99.90;;;;;;5049610;28;20213;-88
2021/08/31 02:40:11;;;;;;;11.73;6.43;;;14.40;99.90;;;;;;5050483;28;20201;-89
2021/08/31 02:42:39;;;;;;;14.20;6.97;;;14.40;99.90;;;;;;5050723;28;20218;-88
2021/08/31 02:45:07;;;;;;;13.17;6.37;;;14.40;99.90;;;;;;5050505;28;20222;-89
2021/08/31 02:47:34;;;;;;;11.57;6.10;;;14.40;99.90;;;;;;5050354;28;20214;-89
2021/08/31 02:50:00;;;;;;;11.63;6.57;;;14.40;99.90;;;;;;5050701;28;20230;-90
2021/08/31 02:52:28;;;;;;;9.07;6.03;;;14.40;99.90;;;;;;5051023;28;20561;-88
2021/08/31 02:54:55;;;;;;;12.33;6.67;;;14.40;99.90;;;;;;5050623;28;20208;-88
2021/08/31 02:57:22;;;;;;;11.33;6.37;;;14.50;99.90;;;;;;5050668;28;20796;-87
2021/08/31 02:59:49;;;;;;;10.80;6.00;;;14.50;99.90;;;;;;5049646;28;20209;-89
2021/08/31 03:02:16;;;;;;;11.93;6.13;;;14.50;99.90;;;;;;5049431;28;20214;-89
2021/08/31 03:04:44;;;;;;;12.63;6.70;;;14.50;99.90;;;;;;5049881;28;20201;-89
2021/08/31 03:07:13;;;;;;;13.83;6.67;;;14.60;99.90;;;;;;5050738;28;20205;-88
2021/08/31 03:09:41;;;;;;;14.50;6.47;;;14.60;99.90;;;;;;5050139;28;20222;-89
2021/08/31 03:12:09;;;;;;;11.27;6.10;;;14.60;99.90;;;;;;5050741;28;20190;-88
2021/08/31 03:14:36;;;;;;;15.43;6.50;;;14.70;99.90;;;;;;5054161;28;20469;-88
2021/08/31 03:17:03;;;;;;;13.20;6.40;;;14.70;99.90;;;;;;5053636;28;20511;-87
2021/08/31 03:19:30;;;;;;;12.67;6.30;;;14.70;99.90;;;;;;5053516;28;20196;-86
2021/08/31 03:21:59;;;;;;;12.63;6.50;;;14.70;99.90;;;;;;5053739;28;20206;-88
2021/08/31 03:24:28;;;;;;;12.57;6.13;;;14.70;99.90;;;;;;5053585;28;20213;-88
2021/08/31 03:26:56;;;;;;;14.40;6.63;;;14.70;99.90;;;;;;5056820;28;20208;-89
2021/08/31 03:29:23;;;;;;;15.77;6.63;;;14.70;99.90;;;;;;5053946;28;20230;-88
2021/08/31 03:31:50;;;;;;;13.20;5.53;;;14.70;99.90;;;;;;5053209;28;20205;-88
2021/08/31 03:34:17;;;;;;;16.73;6.23;;;14.70;99.90;;;;;;5053195;28;20209;-88
2021/08/31 03:36:44;;;;;;;10.53;6.27;;;14.70;99.90;;;;;;5053947;28;20209;-89
2021/08/31 03:39:11;;;;;;;15.73;6.03;;;14.70;99.90;;;;;;5053689;28;20225;-87
2021/08/31 03:41:38;;;;;;;14.20;5.97;;;14.70;99.90;;;;;;5053676;28;20217;-90
2021/08/31 03:44:06;;;;;;;13.90;6.20;;;14.70;99.90;;;;;;5053505;28;20601;-88
2021/08/31 03:46:34;;;;;;;13.43;5.60;;;14.70;99.90;;;;;;5054264;28;20249;-88
2021/08/31 03:49:01;;;;;;;12.87;6.20;;;14.60;99.90;;;;;;5053534;28;20229;-88
2021/08/31 03:51:27;;;;;;;11.50;5.53;;;14.60;99.90;;;;;;5053336;28;20261;-87
2021/08/31 03:53:54;;;;;;;17.77;6.77;;;14.60;99.90;;;;;;5053783;28;20499;-88
2021/08/31 03:56:21;;;;;;;11.83;6.57;;;14.50;99.90;;;;;;5053814;28;20206;-87
2021/08/31 03:58:48;;;;;;;12.97;5.97;;;14.50;99.90;;;;;;5053804;28;20237;-90
2021/08/31 04:01:16;;;;;;;11.97;5.90;;;14.50;99.90;;;;;;5053893;28;20210;-89
2021/08/31 04:03:43;;;;;;;14.00;5.80;;;14.50;99.90;;;;;;5053044;28;20217;-88
2021/08/31 04:06:10;;;;;;;11.33;5.53;;;14.40;99.90;;;;;;5053165;28;20194;-88
2021/08/31 04:08:37;;;;;;;11.80;6.23;;;14.40;99.90;;;;;;5053234;28;20202;-88
2021/08/31 04:11:03;;;;;;;10.80;5.83;;;14.40;99.90;;;;;;5052853;28;20612;-87
2021/08/31 04:13:31;;;;;;;12.20;5.67;;;14.40;99.90;;;;;;5053744;28;20209;-88
2021/08/31 04:15:58;;;;;;;12.23;5.97;;;14.40;99.90;;;;;;5051456;28;20603;-88
2021/08/31 04:18:26;;;;;;;12.83;6.03;;;14.40;99.90;;;;;;5052806;28;20578;-88
2021/08/31 04:20:53;;;;;;;11.67;5.77;;;14.40;99.90;;;;;;5052377;28;20202;-89
2021/08/31 04:23:20;;;;;;;10.37;5.33;;;14.40;99.90;;;;;;5053031;28;20304;-88
2021/08/31 04:25:46;;;;;;;12.00;5.70;;;14.30;99.90;;;;;;5052519;28;20191;-86
2021/08/31 04:28:13;;;;;;;15.80;6.50;;;14.30;99.90;;;;;;5052856;28;20514;-88
2021/08/31 04:30:40;;;;;;;15.80;6.30;;;14.30;99.90;;;;;;5052616;28;20226;-87
2021/08/31 04:33:07;;;;;;;15.87;6.07;;;14.30;99.90;;;;;;5052606;28;20713;-88
2021/08/31 04:35:35;;;;;;;14.67;6.10;;;14.30;99.90;;;;;;5052604;28;20590;-88
2021/08/31 04:38:02;;;;;;;14.17;5.70;;;14.30;99.90;;;;;;5051983;28;20210;-88
2021/08/31 04:40:29;;;;;;;17.00;5.93;;;14.30;99.90;;;;;;5052672;28;20205;-87
2021/08/31 04:42:56;;;;;;;15.83;6.10;;;14.30;99.90;;;;;;5053472;28;20186;-88
2021/08/31 04:45:23;;;;;;;10.83;5.00;;;14.30;99.90;;;;;;5052530;28;20230;-89
2021/08/31 04:47:49;;;;;;;10.50;5.60;;;14.30;99.90;;;;;;5052944;28;20198;-87
2021/08/31 04:50:16;;;;;;;10.13;5.50;;;14.30;99.90;;;;;;5053385;28;20249;-87
2021/08/31 04:52:46;;;;;;;18.77;6.67;;;14.20;99.90;;;;;;5053033;28;20202;-87
2021/08/31 04:55:13;;;;;;;14.60;6.13;;;14.20;99.90;;;;;;5052515;28;20202;-87
2021/08/31 04:57:39;;;;;;;11.30;5.97;;;14.20;99.90;;;;;;5051172;28;20206;-89
2021/08/31 05:00:08;;;;;;;11.33;5.50;;;14.20;99.90;;;;;;5051514;28;20201;-88
2021/08/31 05:02:36;;;;;;;16.97;6.33;;;14.20;99.90;;;;;;5051913;28;20189;-87
2021/08/31 05:05:03;;;;;;;15.93;6.17;;;14.20;99.90;;;;;;5051074;28;20202;-87
2021/08/31 05:07:30;;;;;;;12.20;5.43;;;14.20;99.90;;;;;;5052773;28;20722;-89
2021/08/31 05:09:58;;;;;;;10.10;5.40;;;14.20;99.90;;;;;;5050707;28;20545;-89
2021/08/31 05:12:26;;;;;;;9.33;5.43;;;14.20;99.90;;;;;;5052151;28;20198;-88
2021/08/31 05:14:52;;;;;;;8.93;5.63;;;14.20;99.90;;;;;;5051500;28;20206;-88
2021/08/31 05:17:19;;;;;;;12.70;6.03;;;14.20;99.90;;;;;;5051057;28;20209;-88
2021/08/31 05:19:46;;;;;;;14.97;6.40;;;14.20;99.90;;;;;;5050906;28;20221;-91
2021/08/31 05:22:13;;;;;;;11.80;6.13;;;14.20;99.90;;;;;;5051327;28;20205;-89
2021/08/31 05:24:40;;;;;;;13.30;6.37;;;14.20;99.90;;;;;;5051445;28;20198;-90
2021/08/31 05:27:09;;;;;;;13.20;5.97;;;14.20;99.90;;;;;;5051494;28;20210;-88
2021/08/31 05:29:35;;;;;;;14.43;6.03;;;14.30;99.90;;;;;;5051197;28;20213;-88
2021/08/31 05:32:02;;;;;;;23.30;7.13;;;14.30;99.90;;;;;;5050671;28;20213;-91
2021/08/31 05:34:29;;;;;;;19.80;6.37;;;14.30;99.90;;;;;;5051293;28;20198;-90
2021/08/31 05:36:56;;;;;;;22.27;7.47;;;14.40;99.90;;;;;;5050212;28;20198;-90
2021/08/31 05:39:24;;;;;;;17.13;6.40;;;14.50;99.90;;;;;;5050520;28;20198;-90
2021/08/31 05:41:51;;;;;;;18.03;7.73;;;14.50;99.90;;;;;;5031094;28;20230;-91
2021/08/31 05:44:19;;;;;;;16.60;6.30;;;14.50;99.90;;;;;;5030936;28;20202;-88
2021/08/31 05:46:46;;;;;;;15.13;6.47;;;14.60;99.90;;;;;;5033598;28;20210;-87
2021/08/31 05:49:13;;;;;;;17.07;7.37;;;14.60;99.90;;;;;;5051923;28;20206;-89
2021/08/31 05:51:40;;;;;;;17.10;6.50;;;14.70;99.90;;;;;;5051808;28;20348;-92
2021/08/31 05:54:20;;;;;;;15.10;5.63;;;14.70;99.90;;;;;;5033320;28;20214;-85
2021/08/31 05:56:47;;;;;;;12.23;5.87;;;14.80;99.90;;;;;;5031307;28;20206;-90
2021/08/31 05:59:14;;;;;;;17.73;6.40;;;14.80;99.90;;;;;;5051210;28;20217;-90
2021/08/31 06:01:44;;;;;;;13.73;6.10;;;14.90;99.90;;;;;;5052512;28;20197;-93
2021/08/31 06:04:11;;;;;;;16.70;6.53;;;14.90;99.90;;;;;;5052896;28;20281;-86
2021/08/31 06:06:38;;;;;;;18.53;6.60;;;14.90;99.90;;;;;;5051791;28;20202;-90
2021/08/31 06:09:05;;;;;;;18.67;7.17;;;15.00;99.90;;;;;;5053190;28;20213;-93
2021/08/31 06:11:36;;;;;;;13.03;5.70;;;15.00;99.90;;;;;;5052771;28;20202;-88
2021/08/31 06:14:03;;;;;;;16.43;6.00;;;15.10;99.90;;;;;;5051664;28;20209;-89
2021/08/31 06:16:30;;;;;;;16.27;6.47;;;15.10;99.90;;;;;;5051842;28;20255;-89
2021/08/31 06:18:58;;;;;;;11.77;6.07;;;15.10;99.90;;;;;;5043837;28;20210;-90
2021/08/31 06:21:25;;;;;;;11.57;5.53;;;15.20;99.90;;;;;;5027787;28;20601;-90
2021/08/31 06:23:52;;;;;;;13.97;5.83;;;15.20;99.90;;;;;;5036120;28;20918;-90
2021/08/31 06:26:19;;;;;;;19.83;6.50;;;15.20;99.90;;;;;;5048820;28;20218;-86
2021/08/31 06:28:46;;;;;;;13.73;6.07;;;15.30;99.90;;;;;;5050315;28;20205;-91
2021/08/31 06:31:13;;;;;;;12.50;5.63;;;15.30;99.90;;;;;;5050408;28;20222;-89
2021/08/31 06:33:45;;;;;;;20.57;6.43;;;15.40;99.90;;;;;;5050095;28;20202;-86
2021/08/31 06:36:14;;;;;;;15.50;6.10;;;15.50;99.90;;;;;;5051034;28;20222;-88
2021/08/31 06:38:41;;;;;;;21.80;6.60;;;15.50;99.90;;;;;;5050463;28;20205;-87
2021/08/31 06:41:08;;;;;;;16.73;5.43;;;15.60;99.90;;;;;;5051077;28;20220;-88
2021/08/31 06:43:35;;;;;;;15.13;6.33;;;15.60;99.90;;;;;;5052269;28;20198;-89
2021/08/31 06:46:01;;;;;;;17.73;5.87;;;15.70;99.90;;;;;;5051343;28;20222;-88
2021/08/31 06:48:28;;;;;;;13.83;5.90;;;15.80;99.90;;;;;;5070955;22;20233;-89
2021/08/31 06:50:55;;;;;;;13.70;5.50;;;15.80;99.90;;;;;;5074919;28;20221;-87
2021/08/31 06:53:23;;;;;;;17.63;6.27;;;15.90;99.90;;;;;;5075018;28;20201;-89
2021/08/31 06:55:50;;;;;;;21.10;6.93;;;15.90;99.90;;;;;;5075159;28;20208;-86
2021/08/31 06:58:17;;;;;;;11.93;5.82;;;16.00;99.90;;;;;;5056078;28;20205;-86
2021/08/31 07:00:44;;;;;;;16.80;6.53;;;16.00;99.90;;;;;;5054353;28;20506;-87
2021/08/31 07:03:11;;;;;;;19.02;6.38;;;16.10;99.90;;;;;;5058289;28;20212;-88
2021/08/31 07:05:37;;;;;;;14.10;5.50;;;16.20;99.90;;;;;;5074916;28;20209;-87
2021/08/31 07:08:04;;;;;;;18.13;6.23;;;16.30;99.90;;;;;;5076064;28;20193;-90
2021/08/31 07:10:33;;;;;;;13.35;6.03;;;16.40;99.90;;;;;;5075110;28;20224;-88
2021/08/31 07:13:00;;;;;;;15.13;5.68;;;16.50;99.90;;;;;;5076038;28;20215;-90
2021/08/31 07:15:26;;;;;;;17.70;5.30;;;16.60;99.90;;;;;;5074241;28;20213;-84
2021/08/31 07:17:53;;;;;;;15.15;5.80;;;16.70;99.90;;;;;;5075853;28;20201;-89
2021/08/31 07:20:20;;;;;;;18.05;5.53;;;16.80;99.90;;;;;;5082541;28;20203;-87
2021/08/31 07:22:47;;;;;;;16.60;5.15;;;16.90;99.90;;;;;;5081188;28;20197;-88
2021/08/31 07:25:14;;;;;;;20.92;6.10;;;17.00;99.90;;;;;;5073580;28;20206;-87
2021/08/31 07:27:42;;;;;;;15.32;5.38;;;17.10;99.90;;;;;;5060685;28;20207;-89
2021/08/31 07:30:10;;;;;;;15.25;5.28;;;17.20;99.90;;;;;;5071719;28;20224;-91
2021/08/31 07:32:37;;;;;;;14.18;5.60;;;17.30;99.90;;;;;;5064018;28;20237;-89
2021/08/31 07:35:07;;;;;;;15.18;5.88;;;17.30;99.90;;;;;;5054910;28;20285;-89
2021/08/31 07:37:34;;;;;;;14.20;4.88;;;17.40;99.90;;;;;;5069220;28;20209;-88
2021/08/31 07:40:01;;;;;;;12.57;5.00;;;17.40;99.90;;;;;;5076659;28;20201;-94
2021/08/31 07:42:29;;;;;;;14.93;5.65;;;17.50;99.90;;;;;;5067650;28;20202;-94
2021/08/31 07:44:57;;;;;;;11.93;5.18;;;17.60;99.90;;;;;;5053188;28;20226;-90
2021/08/31 07:47:24;;;;;;;11.55;5.18;;;17.80;99.90;;;;;;5053703;28;20199;-88
2021/08/31 07:49:51;;;;;;;16.48;5.72;;;17.90;99.90;;;;;;5053528;28;20202;-90
2021/08/31 07:52:17;;;;;;;12.75;4.35;;;17.90;99.90;;;;;;5057326;28;20478;-90
2021/08/31 07:54:44;;;;;;;13.40;5.30;;;17.90;99.90;;;;;;5073999;28;20201;-89
2021/08/31 07:57:11;;;;;;;15.05;5.15;;;18.00;99.90;;;;;;5073851;28;20210;-88
2021/08/31 07:59:38;;;;;;;14.10;5.55;;;17.90;99.90;;;;;;5072575;28;20216;-90
2021/08/31 08:02:07;;;;;;;9.80;4.95;;;17.90;99.90;;;;;;5073533;28;20197;-90
2021/08/31 08:04:34;;;;;;;11.07;5.20;;;17.90;99.90;;;;;;5074359;28;20201;-92
2021/08/31 08:07:01;;;;;;;13.32;4.97;;;17.90;99.90;;;;;;5074555;28;20197;-90
2021/08/31 08:09:28;;;;;;;15.60;5.65;;;17.90;99.90;;;;;;5073603;28;20595;-92
2021/08/31 08:11:55;;;;;;;13.10;5.05;;;18.00;99.90;;;;;;5073438;28;20225;-93
2021/08/31 08:14:22;;;;;;;16.58;5.68;;;18.10;99.90;;;;;;5073721;28;20219;-93
2021/08/31 08:16:49;;;;;;;14.20;5.60;;;18.20;99.90;;;;;;5073263;28;20284;-92
2021/08/31 08:19:17;;;;;;;12.05;5.15;;;18.20;99.90;;;;;;5072351;28;20197;-88
2021/08/31 08:21:44;;;;;;;13.45;5.70;;;18.20;99.90;;;;;;5072913;28;20204;-93
2021/08/31 08:24:10;;;;;;;10.77;4.82;;;18.20;99.90;;;;;;5073742;28;20194;-91
2021/08/31 08:26:38;;;;;;;13.90;5.35;;;18.20;99.90;;;;;;5073836;28;20205;-90
2021/08/31 08:29:05;;;;;;;12.82;5.28;;;18.20;99.90;;;;;;5073533;28;20201;-89
2021/08/31 08:31:34;;;;;;;18.52;5.55;;;18.20;99.90;;;;;;5072212;28;20217;-88
2021/08/31 08:34:01;;;;;;;14.02;5.45;;;18.30;99.90;;;;;;5072799;28;20205;-89
2021/08/31 08:36:29;;;;;;;13.07;4.85;;;18.40;99.90;;;;;;5073660;28;20628;-86
2021/08/31 08:38:56;;;;;;;12.20;5.32;;;18.40;99.90;;;;;;5069078;28;20808;-87
2021/08/31 08:41:23;;;;;;;13.05;5.60;;;18.50;99.90;;;;;;5066531;28;20205;-88
2021/08/31 08:43:49;;;;;;;13.43;4.85;;;18.60;99.90;;;;;;5073418;28;20197;-90
2021/08/31 08:46:16;;;;;;;11.68;4.85;;;18.60;99.90;;;;;;5073621;28;20209;-93
2021/08/31 08:48:47;;;;;;;11.88;4.32;;;18.70;99.90;;;;;;5073288;28;20240;-90
2021/08/31 08:51:14;;;;;;;16.00;5.03;;;18.70;99.90;;;;;;5057009;28;20226;-87
2021/08/31 08:53:43;;;;;;;11.25;5.00;;;18.60;99.90;;;;;;5052911;28;20206;-90
2021/08/31 08:56:09;;;;;;;12.63;4.05;;;18.70;99.90;;;;;;5057773;28;20243;-89
2021/08/31 08:58:36;;;;;;;8.93;4.03;;;18.70;99.90;;;;;;5072538;28;20200;-90
2021/08/31 09:01:06;;;;;;;12.45;4.30;;;18.80;99.90;;;;;;5072253;28;20198;-88
2021/08/31 09:03:35;;;;;;;14.05;4.82;;;18.90;99.90;;;;;;5072786;28;20513;-90
2021/08/31 09:06:11;;;;;;;9.48;4.88;;;18.90;99.90;;;;;;5071714;28;20210;-87
2021/08/31 09:08:42;;;;;;;9.70;4.47;;;19.00;99.90;;;;;;5071975;28;20284;-89
2021/08/31 09:11:22;;;;;;;13.23;4.57;;;19.00;99.90;;;;;;5072179;28;20221;-89
2021/08/31 09:13:49;;;;;;;11.30;4.57;;;19.10;99.90;;;;;;5072676;28;20208;-93
2021/08/31 09:16:29;;;;;;;9.70;4.50;;;19.10;99.90;;;;;;5072601;28;20282;-93
2021/08/31 09:18:57;;;;;;;14.57;4.57;;;19.10;99.90;;;;;;5070306;28;20193;-82
2021/08/31 09:21:25;;;;;;;62.05;24.60;;;19.20;99.90;;;;;;5070312;28;20205;-90
2021/08/31 09:23:54;;;;;;;49.08;17.27;;;19.20;99.90;;;;;;5070710;28;20190;-88
2021/08/31 09:26:38;;;;;;;11.13;5.38;;;19.30;99.90;;;;;;5071195;28;20209;-88
2021/08/31 09:29:21;;;;;;;8.30;4.63;;;19.30;99.90;;;;;;5058281;28;20206;-85
2021/08/31 09:31:53;;;;;;;10.82;4.38;;;19.40;99.90;;;;;;5051442;28;20608;-91
2021/08/31 09:34:41;;;;;;;8.73;4.10;;;19.50;99.90;;;;;;5052394;28;20197;-92
2021/08/31 09:37:30;;;;;;;12.40;4.78;;;19.60;99.90;;;;;;5051391;28;20198;-89
2021/08/31 09:40:10;;;;;;;10.40;4.80;;;19.70;99.90;;;;;;5052229;28;20801;-88
2021/08/31 09:42:53;;;;;;;13.77;5.28;;;19.70;99.90;;;;;;5070147;28;20608;-90
2021/08/31 09:45:24;;;;;;;8.50;4.40;;;19.80;99.90;;;;;;5071825;28;20221;-87
2021/08/31 09:47:51;;;;;;;18.13;5.07;;;19.80;99.90;;;;;;5054210;28;20257;-87
2021/08/31 09:50:30;;;;;;;14.40;4.57;;;20.00;99.90;;;;;;5051190;28;20209;-91
2021/08/31 09:53:12;;;;;;;10.88;4.25;;;20.00;99.90;;;;;;5069558;28;20227;-88
2021/08/31 09:55:42;;;;;;;12.23;4.35;;;20.00;99.90;;;;;;5071485;28;20217;-86
2021/08/31 09:58:23;;;;;;;11.70;4.60;;;20.00;99.90;;;;;;5072099;28;20621;-87
2021/08/31 10:00:52;;;;;;;10.50;4.07;;;20.00;99.90;;;;;;5072378;28;20216;-91
2021/08/31 10:03:20;;;;;;;13.63;4.93;;;20.00;99.90;;;;;;5073455;28;20211;-92
2021/08/31 10:05:48;;;;;;;14.63;4.88;;;20.00;99.90;;;;;;5071588;28;20240;-93
2021/08/31 10:08:16;;;;;;;12.35;4.32;;;20.00;99.90;;;;;;5071445;28;20551;-95
2021/08/31 10:10:45;;;;;;;11.25;4.15;;;19.90;99.90;;;;;;5071717;28;20232;-93
2021/08/31 10:13:16;;;;;;;15.75;5.10;;;19.90;99.90;;;;;;5072273;28;20197;-89
2021/08/31 10:15:47;;;;;;;14.45;4.38;;;19.80;99.90;;;;;;5071449;28;20205;-89
2021/08/31 10:18:15;;;;;;;15.30;4.28;;;19.80;99.90;;;;;;5071164;28;20212;-89
2021/08/31 10:20:46;;;;;;;9.75;4.90;;;19.70;99.90;;;;;;5072015;28;20190;-91
2021/08/31 10:23:16;;;;;;;11.00;4.32;;;19.70;99.90;;;;;;5063690;28;20244;-84
2021/08/31 10:25:43;;;;;;;17.00;5.55;;;19.70;99.90;;;;;;5054360;28;20214;-84
2021/08/31 10:28:26;;;;;;;11.52;4.70;;;19.60;99.90;;;;;;5054661;28;20205;-84
2021/08/31 10:30:55;;;;;;;15.25;5.00;;;19.70;99.90;;;;;;5060526;28;20233;-90
2021/08/31 10:33:34;;;;;;;9.25;4.28;;;19.60;99.90;;;;;;5075357;28;20205;-91
2021/08/31 10:36:03;;;;;;;14.32;4.60;;;19.50;99.90;;;;;;5056364;28;20240;-92
2021/08/31 10:38:53;;;;;;;12.50;4.53;;;19.40;99.90;;;;;;5055197;28;20201;-87
2021/08/31 10:41:44;;;;;;;17.95;4.50;;;19.50;99.90;;;;;;5054972;28;20621;-86
2021/08/31 10:44:40;;;;;;;10.45;4.40;;;19.40;99.90;;;;;;5072516;28;20275;-87
2021/08/31 10:47:14;;;;;;;13.90;4.65;;;19.30;99.90;;;;;;5074035;28;20206;-86
2021/08/31 10:50:08;;;;;;;13.20;4.63;;;19.40;99.90;;;;;;5060251;28;20224;-87
2021/08/31 10:52:37;;;;;;;10.13;4.38;;;19.50;99.90;;;;;;5048311;28;20226;-86
2021/08/31 10:55:05;;;;;;;10.23;4.20;;;19.70;99.90;;;;;;5055013;28;20201;-88
2021/08/31 10:57:45;;;;;;;9.77;4.80;;;19.80;99.90;;;;;;5075208;28;20209;-89
2021/08/31 11:01:00;;;;;;;11.07;4.78;;;19.80;99.90;;;;;;5074689;28;20193;-87
2021/08/31 11:03:44;;;;;;;10.38;4.43;;;19.90;99.90;;;;;;5074312;28;20328;-89
2021/08/31 11:06:33;;;;;;;10.45;4.47;;;19.90;99.90;;;;;;5074646;28;20197;-90
2021/08/31 11:09:25;;;;;;;13.50;4.82;;;19.90;99.90;;;;;;5073416;28;20233;-90
2021/08/31 11:12:16;;;;;;;10.20;4.68;;;20.00;99.90;;;;;;5073854;28;20275;-87
2021/08/31 11:14:53;;;;;;;9.10;3.85;;;19.90;99.90;;;;;;5072467;28;20609;-86
2021/08/31 11:17:35;;;;;;;12.35;4.95;;;19.90;99.90;;;;;;5085821;28;20181;-89
2021/08/31 11:20:23;;;;;;;8.75;4.10;;;19.80;99.90;;;;;;5076400;28;20211;-88
2021/08/31 11:22:52;;;;;;;11.35;4.20;;;19.80;99.90;;;;;;5074545;28;20279;-85
2021/08/31 11:25:27;;;;;;;17.92;5.10;;;19.80;99.90;;;;;;5075382;28;20209;-87
2021/08/31 11:27:56;;;;;;;12.07;4.30;;;19.90;99.90;;;;;;5072847;28;20209;-89
2021/08/31 11:30:24;;;;;;;12.07;4.47;;;19.70;99.90;;;;;;5073750;28;20216;-86
2021/08/31 11:33:13;;;;;;;10.82;4.15;;;19.60;99.90;;;;;;5071199;28;20633;-90
2021/08/31 11:35:41;;;;;;;7.55;3.85;;;19.50;99.90;;;;;;5066078;28;20198;-84
2021/08/31 11:38:08;;;;;;;13.48;3.78;;;19.50;99.90;;;;;;5058273;28;20209;-84
2021/08/31 11:40:35;;;;;;;12.88;4.22;;;19.50;99.90;;;;;;5072397;28;20213;-84
2021/08/31 11:43:02;;;;;;;36.55;6.72;;;19.60;99.90;;;;;;5071537;28;20205;-84
2021/08/31 11:45:37;;;;;;;135.95;13.10;;;19.60;99.90;;;;;;5073002;28;20660;-88
2021/08/31 11:48:06;;;;;;;12.25;4.32;;;19.70;99.90;;;;;;5051736;28;20645;-86
2021/08/31 11:50:33;;;;;;;9.63;3.75;;;19.80;99.90;;;;;;5066965;28;20201;-86
2021/08/31 11:53:16;;;;;;;9.75;3.83;;;19.80;99.90;;;;;;5071217;28;20625;-89
2021/08/31 11:55:43;;;;;;;7.78;3.67;;;19.70;99.90;;;;;;5072658;28;20209;-89
2021/08/31 11:58:10;;;;;;;12.02;4.22;;;19.80;99.90;;;;;;5073069;28;20205;-86
2021/08/31 12:00:42;;;;;;;9.30;3.78;;;19.90;99.90;;;;;;5073284;28;20228;-89
2021/08/31 12:03:26;;;;;;;10.60;3.47;;;20.00;99.90;;;;;;5073122;28;20658;-88
2021/08/31 12:05:57;;;;;;;10.63;3.17;;;19.90;99.90;;;;;;5072951;28;20201;-88
2021/08/31 12:08:27;;;;;;;10.85;4.18;;;19.90;99.90;;;;;;5074720;28;20201;-89
2021/08/31 12:10:55;;;;;;;12.63;3.80;;;19.80;99.90;;;;;;5074526;28;20223;-88
2021/08/31 12:13:24;;;;;;;10.55;3.95;;;19.80;99.90;;;;;;5075398;28;20224;-87
2021/08/31 12:15:54;;;;;;;11.98;4.32;;;19.80;99.90;;;;;;5074397;28;20220;-88
2021/08/31 12:18:25;;;;;;;10.75;4.00;;;19.70;99.90;;;;;;5075381;28;20202;-89
2021/08/31 12:20:52;;;;;;;13.38;4.05;;;19.70;99.90;;;;;;5074732;28;20220;-88
2021/08/31 12:23:19;;;;;;;12.30;4.10;;;19.60;99.90;;;;;;5074977;28;20288;-86
2021/08/31 12:25:50;;;;;;;13.55;4.55;;;19.60;99.90;;;;;;5074223;28;20221;-86
2021/08/31 12:28:19;;;;;;;9.57;3.60;;;19.50;99.90;;;;;;5075161;28;20213;-86
2021/08/31 12:30:47;;;;;;;12.45;3.95;;;19.50;99.90;;;;;;5073437;28;20205;-89
2021/08/31 12:33:23;;;;;;;13.02;4.47;;;19.50;99.90;;;;;;5091387;28;20232;-88
2021/08/31 12:36:01;;;;;;;13.90;4.22;;;19.40;99.90;;;;;;5085280;28;20209;-81
2021/08/31 12:38:32;;;;;;;11.05;3.90;;;19.40;99.90;;;;;;5078144;28;20213;-89
2021/08/31 12:41:08;;;;;;;14.30;4.18;;;19.30;99.90;;;;;;5076660;28;20581;-88
2021/08/31 12:43:47;;;;;;;8.05;3.50;;;19.30;99.90;;;;;;5070903;28;20242;-80
2021/08/31 12:46:22;;;;;;;9.52;3.63;;;19.30;99.90;;;;;;5069944;28;20255;-91
2021/08/31 12:48:50;;;;;;;11.10;4.03;;;19.20;99.90;;;;;;5068588;28;20236;-82